sensor_id;sensor_type;location;lat;lon;timestamp;pressure;altitude;pressure_sealevel;temperature;humidity
2397;BME280;1209;48.410;9.054;2022-11-20T00:01:47;95734.44;;;5.82;100.00
2397;BME280;1209;48.410;9.054;2022-11-20T00:04:13;95725.53;;;5.77;100.00
2397;BME280;1209;48.410;9.054;2022-11-20T00:06:38;95727.94;;;5.78;100.00
2397;BME280;1209;48.410;9.054;2022-11-20T00:09:03;95724.56;;;5.78;100.00
2397;BME280;1209;48.410;9.054;2022-11-20T00:11:31;95727.47;;;5.75;100.00
2397;BME280;1209;48.410;9.054;2022-11-20T00:13:59;95725.38;;;5.78;100.00
2397;BME280;1209;48.410;9.054;2022-11-20T00:16:26;95731.69;;;5.84;100.00
2397;BME280;1209;48.410;9.054;2022-11-20T00:18:53;95731.34;;;5.79;100.00
2397;BME280;1209;48.410;9.054;2022-11-20T00:21:23;95724.72;;;5.84;100.00
2397;BME280;1209;48.410;9.054;2022-11-20T00:23:50;95736.03;;;5.75;100.00
2397;BME280;1209;48.410;9.054;2022-11-20T00:26:17;95732.97;;;5.80;100.00
2397;BME280;1209;48.410;9.054;2022-11-20T00:28:44;95726.81;;;5.81;100.00
2397;BME280;1209;48.410;9.054;2022-11-20T00:31:15;95734.75;;;5.79;100.00
2397;BME280;1209;48.410;9.054;2022-11-20T00:33:41;95733.47;;;5.83;100.00
2397;BME280;1209;48.410;9.054;2022-11-20T00:36:15;95733.78;;;5.80;100.00
2397;BME280;1209;48.410;9.054;2022-11-20T00:38:41;95731.03;;;5.74;100.00
2397;BME280;1209;48.410;9.054;2022-11-20T00:41:09;95735.72;;;5.78;100.00
2397;BME280;1209;48.410;9.054;2022-11-20T00:43:35;95738.09;;;5.63;100.00
2397;BME280;1209;48.410;9.054;2022-11-20T00:46:05;95735.34;;;5.65;100.00
2397;BME280;1209;48.410;9.054;2022-11-20T00:48:31;95729.19;;;5.66;100.00
2397;BME280;1209;48.410;9.054;2022-11-20T00:50:56;95736.81;;;5.67;100.00
2397;BME280;1209;48.410;9.054;2022-11-20T00:53:22;95735.50;;;5.63;100.00
2397;BME280;1209;48.410;9.054;2022-11-20T00:56:01;95734.38;;;5.66;100.00
2397;BME280;1209;48.410;9.054;2022-11-20T00:58:32;95744.25;;;5.62;100.00
2397;BME280;1209;48.410;9.054;2022-11-20T01:01:01;95751.34;;;5.60;100.00
2397;BME280;1209;48.410;9.054;2022-11-20T01:03:30;95747.44;;;5.56;100.00
2397;BME280;1209;48.410;9.054;2022-11-20T01:06:00;95742.13;;;5.58;100.00
2397;BME280;1209;48.410;9.054;2022-11-20T01:08:29;95751.66;;;5.57;100.00
2397;BME280;1209;48.410;9.054;2022-11-20T01:11:02;95756.34;;;5.54;100.00
2397;BME280;1209;48.410;9.054;2022-11-20T01:13:28;95753.25;;;5.50;100.00
2397;BME280;1209;48.410;9.054;2022-11-20T01:18:42;95753.91;;;5.52;100.00
2397;BME280;1209;48.410;9.054;2022-11-20T01:21:13;95752.78;;;5.55;100.00
2397;BME280;1209;48.410;9.054;2022-11-20T01:23:40;95758.44;;;5.50;100.00
2397;BME280;1209;48.410;9.054;2022-11-20T01:26:12;95760.38;;;5.48;100.00
2397;BME280;1209;48.410;9.054;2022-11-20T01:28:38;95757.78;;;5.48;100.00
2397;BME280;1209;48.410;9.054;2022-11-20T01:31:22;95756.66;;;5.51;100.00
2397;BME280;1209;48.410;9.054;2022-11-20T01:33:50;95758.91;;;5.46;100.00
2397;BME280;1209;48.410;9.054;2022-11-20T01:36:17;95751.44;;;5.43;100.00
2397;BME280;1209;48.410;9.054;2022-11-20T01:38:43;95758.78;;;5.55;100.00
2397;BME280;1209;48.410;9.054;2022-11-20T01:41:09;95761.38;;;5.55;100.00
2397;BME280;1209;48.410;9.054;2022-11-20T01:43:35;95765.59;;;5.56;100.00
2397;BME280;1209;48.410;9.054;2022-11-20T01:48:39;95764.75;;;5.48;100.00
2397;BME280;1209;48.410;9.054;2022-11-20T01:51:10;95770.06;;;5.46;100.00
2397;BME280;1209;48.410;9.054;2022-11-20T01:53:37;95771.53;;;5.49;100.00
2397;BME280;1209;48.410;9.054;2022-11-20T01:56:05;95767.97;;;5.50;100.00
2397;BME280;1209;48.410;9.054;2022-11-20T01:58:33;95771.06;;;5.53;100.00
2397;BME280;1209;48.410;9.054;2022-11-20T02:01:00;95772.53;;;5.56;100.00
2397;BME280;1209;48.410;9.054;2022-11-20T02:03:26;95769.00;;;5.65;100.00
2397;BME280;1209;48.410;9.054;2022-11-20T02:08:24;95769.63;;;5.59;100.00
2397;BME280;1209;48.410;9.054;2022-11-20T02:10:49;95770.91;;;5.55;100.00
2397;BME280;1209;48.410;9.054;2022-11-20T02:13:15;95770.94;;;5.63;100.00
2397;BME280;1209;48.410;9.054;2022-11-20T02:15:59;95766.88;;;5.60;100.00
2397;BME280;1209;48.410;9.054;2022-11-20T02:18:25;95770.78;;;5.64;100.00
2397;BME280;1209;48.410;9.054;2022-11-20T02:20:58;95766.47;;;5.73;100.00
2397;BME280;1209;48.410;9.054;2022-11-20T02:23:38;95762.91;;;5.74;100.00
2397;BME280;1209;48.410;9.054;2022-11-20T02:26:07;95763.41;;;5.78;100.00
2397;BME280;1209;48.410;9.054;2022-11-20T02:28:34;95765.84;;;5.79;100.00
2397;BME280;1209;48.410;9.054;2022-11-20T02:31:00;95760.34;;;5.82;100.00
2397;BME280;1209;48.410;9.054;2022-11-20T02:33:25;95766.38;;;5.91;100.00
2397;BME280;1209;48.410;9.054;2022-11-20T02:35:51;95770.59;;;5.92;100.00
2397;BME280;1209;48.410;9.054;2022-11-20T02:38:16;95767.19;;;5.91;100.00
2397;BME280;1209;48.410;9.054;2022-11-20T02:40:43;95759.22;;;5.85;100.00
2397;BME280;1209;48.410;9.054;2022-11-20T02:43:08;95762.19;;;5.90;100.00
2397;BME280;1209;48.410;9.054;2022-11-20T02:45:34;95764.75;;;5.90;100.00
2397;BME280;1209;48.410;9.054;2022-11-20T02:48:00;95759.28;;;6.01;100.00
2397;BME280;1209;48.410;9.054;2022-11-20T02:50:25;95759.75;;;5.96;100.00
2397;BME280;1209;48.410;9.054;2022-11-20T02:52:51;95764.31;;;6.03;100.00
2397;BME280;1209;48.410;9.054;2022-11-20T02:55:16;95756.03;;;5.99;100.00
2397;BME280;1209;48.410;9.054;2022-11-20T02:57:42;95758.97;;;6.04;100.00
2397;BME280;1209;48.410;9.054;2022-11-20T03:00:08;95758.16;;;6.04;100.00
2397;BME280;1209;48.410;9.054;2022-11-20T03:02:33;95759.44;;;5.99;100.00
2397;BME280;1209;48.410;9.054;2022-11-20T03:04:58;95751.84;;;6.06;100.00
2397;BME280;1209;48.410;9.054;2022-11-20T03:07:24;95755.06;;;6.00;100.00
2397;BME280;1209;48.410;9.054;2022-11-20T03:09:49;95754.09;;;6.01;100.00
2397;BME280;1209;48.410;9.054;2022-11-20T03:12:16;95753.94;;;5.94;100.00
2397;BME280;1209;48.410;9.054;2022-11-20T03:14:41;95759.91;;;5.95;100.00
2397;BME280;1209;48.410;9.054;2022-11-20T03:17:07;95757.75;;;5.82;100.00
2397;BME280;1209;48.410;9.054;2022-11-20T03:19:32;95750.63;;;5.84;100.00
2397;BME280;1209;48.410;9.054;2022-11-20T03:21:59;95752.72;;;5.81;100.00
2397;BME280;1209;48.410;9.054;2022-11-20T03:24:25;95752.41;;;5.76;100.00
2397;BME280;1209;48.410;9.054;2022-11-20T03:26:50;95748.50;;;5.72;100.00
2397;BME280;1209;48.410;9.054;2022-11-20T03:29:16;95741.22;;;5.75;100.00
2397;BME280;1209;48.410;9.054;2022-11-20T03:31:41;95739.09;;;5.71;100.00
2397;BME280;1209;48.410;9.054;2022-11-20T03:34:08;95739.25;;;5.69;100.00
2397;BME280;1209;48.410;9.054;2022-11-20T03:36:34;95746.50;;;5.65;100.00
2397;BME280;1209;48.410;9.054;2022-11-20T03:38:59;95744.72;;;5.66;100.00
2397;BME280;1209;48.410;9.054;2022-11-20T03:41:27;95747.47;;;5.64;100.00
2397;BME280;1209;48.410;9.054;2022-11-20T03:43:56;95740.53;;;5.65;100.00
2397;BME280;1209;48.410;9.054;2022-11-20T03:46:22;95741.00;;;5.60;100.00
2397;BME280;1209;48.410;9.054;2022-11-20T03:48:48;95735.00;;;5.60;100.00
2397;BME280;1209;48.410;9.054;2022-11-20T03:53:41;95742.28;;;5.56;100.00
2397;BME280;1209;48.410;9.054;2022-11-20T03:56:08;95747.31;;;5.66;100.00
2397;BME280;1209;48.410;9.054;2022-11-20T03:58:34;95747.94;;;5.60;100.00
2397;BME280;1209;48.410;9.054;2022-11-20T04:01:17;95756.84;;;5.57;100.00
2397;BME280;1209;48.410;9.054;2022-11-20T04:03:43;95751.19;;;5.62;100.00
2397;BME280;1209;48.410;9.054;2022-11-20T04:06:20;95752.66;;;5.64;100.00
2397;BME280;1209;48.410;9.054;2022-11-20T04:08:47;95755.88;;;5.58;100.00
2397;BME280;1209;48.410;9.054;2022-11-20T04:11:17;95748.75;;;5.60;100.00
2397;BME280;1209;48.410;9.054;2022-11-20T04:13:47;95749.22;;;5.56;100.00
2397;BME280;1209;48.410;9.054;2022-11-20T04:16:13;95757.69;;;5.66;100.00
2397;BME280;1209;48.410;9.054;2022-11-20T04:18:39;95737.00;;;5.74;100.00
2397;BME280;1209;48.410;9.054;2022-11-20T04:21:05;95755.25;;;5.64;100.00
2397;BME280;1209;48.410;9.054;2022-11-20T04:23:30;95751.25;;;5.70;100.00
2397;BME280;1209;48.410;9.054;2022-11-20T04:26:01;95752.88;;;5.71;100.00
2397;BME280;1209;48.410;9.054;2022-11-20T04:28:27;95753.84;;;5.70;100.00
2397;BME280;1209;48.410;9.054;2022-11-20T04:30:52;95760.63;;;5.71;100.00
2397;BME280;1209;48.410;9.054;2022-11-20T04:33:17;95751.34;;;5.60;100.00
2397;BME280;1209;48.410;9.054;2022-11-20T04:35:44;95755.53;;;5.53;100.00
2397;BME280;1209;48.410;9.054;2022-11-20T04:38:12;95751.63;;;5.49;100.00
2397;BME280;1209;48.410;9.054;2022-11-20T04:40:37;95753.44;;;5.57;100.00
2397;BME280;1209;48.410;9.054;2022-11-20T04:43:03;95760.22;;;5.50;100.00
2397;BME280;1209;48.410;9.054;2022-11-20T04:45:28;95755.53;;;5.53;100.00
2397;BME280;1209;48.410;9.054;2022-11-20T04:47:53;95757.28;;;5.45;100.00
2397;BME280;1209;48.410;9.054;2022-11-20T04:50:18;95753.53;;;5.39;100.00
2397;BME280;1209;48.410;9.054;2022-11-20T04:52:44;95756.59;;;5.34;100.00
2397;BME280;1209;48.410;9.054;2022-11-20T04:55:09;95755.47;;;5.37;100.00
2397;BME280;1209;48.410;9.054;2022-11-20T04:57:34;95753.53;;;5.39;100.00
2397;BME280;1209;48.410;9.054;2022-11-20T05:00:00;95760.22;;;5.50;100.00
2397;BME280;1209;48.410;9.054;2022-11-20T05:02:25;95765.91;;;5.53;100.00
2397;BME280;1209;48.410;9.054;2022-11-20T05:04:50;95759.19;;;5.34;100.00
2397;BME280;1209;48.410;9.054;2022-11-20T05:07:16;95755.78;;;5.34;100.00
2397;BME280;1209;48.410;9.054;2022-11-20T05:09:41;95758.56;;;5.41;100.00
2397;BME280;1209;48.410;9.054;2022-11-20T05:12:08;95758.56;;;5.41;100.00
2397;BME280;1209;48.410;9.054;2022-11-20T05:14:33;95755.34;;;5.47;100.00
2397;BME280;1209;48.410;9.054;2022-11-20T05:16:59;95755.94;;;5.32;100.00
2397;BME280;1209;48.410;9.054;2022-11-20T05:19:24;95754.47;;;5.30;100.00
2397;BME280;1209;48.410;9.054;2022-11-20T05:21:50;95751.41;;;5.34;100.00
2397;BME280;1209;48.410;9.054;2022-11-20T05:24:15;95751.72;;;5.31;100.00
2397;BME280;1209;48.410;9.054;2022-11-20T05:26:40;95758.56;;;5.15;100.00
2397;BME280;1209;48.410;9.054;2022-11-20T05:29:06;95755.94;;;5.06;100.00
2397;BME280;1209;48.410;9.054;2022-11-20T05:31:31;95751.31;;;5.18;100.00
2397;BME280;1209;48.410;9.054;2022-11-20T05:33:57;95754.38;;;5.14;100.00
2397;BME280;1209;48.410;9.054;2022-11-20T05:36:22;95744.00;;;5.14;100.00
2397;BME280;1209;48.410;9.054;2022-11-20T05:38:48;95744.28;;;5.02;100.00
2397;BME280;1209;48.410;9.054;2022-11-20T05:41:15;95746.41;;;5.07;100.00
2397;BME280;1209;48.410;9.054;2022-11-20T05:43:44;95747.38;;;5.06;100.00
2397;BME280;1209;48.410;9.054;2022-11-20T05:46:12;95742.19;;;5.06;100.00
2397;BME280;1209;48.410;9.054;2022-11-20T05:48:38;95738.66;;;5.07;100.00
2397;BME280;1209;48.410;9.054;2022-11-20T05:51:05;95739.63;;;5.06;100.00
2397;BME280;1209;48.410;9.054;2022-11-20T05:53:32;95734.31;;;5.16;100.00
2397;BME280;1209;48.410;9.054;2022-11-20T05:56:02;95729.00;;;5.17;100.00
2397;BME280;1209;48.410;9.054;2022-11-20T05:58:29;95732.03;;;5.13;100.00
2397;BME280;1209;48.410;9.054;2022-11-20T06:01:04;95735.09;;;5.08;100.00
2397;BME280;1209;48.410;9.054;2022-11-20T06:03:30;95738.94;;;5.04;100.00
2397;BME280;1209;48.410;9.054;2022-11-20T06:05:56;95734.09;;;5.01;100.00
2397;BME280;1209;48.410;9.054;2022-11-20T06:08:21;95733.31;;;5.09;100.00
2397;BME280;1209;48.410;9.054;2022-11-20T06:10:46;95726.41;;;5.17;100.00
2397;BME280;1209;48.410;9.054;2022-11-20T06:13:11;95727.53;;;5.15;100.00
2397;BME280;1209;48.410;9.054;2022-11-20T06:15:37;95729.66;;;5.19;100.00
2397;BME280;1209;48.410;9.054;2022-11-20T06:18:02;95732.53;;;5.16;100.00
2397;BME280;1209;48.410;9.054;2022-11-20T06:20:27;95734.31;;;5.16;100.00
2397;BME280;1209;48.410;9.054;2022-11-20T06:22:53;95733.16;;;5.10;100.00
2397;BME280;1209;48.410;9.054;2022-11-20T06:25:18;95734.13;;;5.09;100.00
2397;BME280;1209;48.410;9.054;2022-11-20T06:27:43;95730.47;;;5.20;100.00
2397;BME280;1209;48.410;9.054;2022-11-20T06:30:09;95730.47;;;5.20;100.00
2397;BME280;1209;48.410;9.054;2022-11-20T06:32:34;95733.75;;;5.30;100.00
2397;BME280;1209;48.410;9.054;2022-11-20T06:35:00;95738.63;;;5.33;100.00
2397;BME280;1209;48.410;9.054;2022-11-20T06:37:25;95737.81;;;5.32;100.00
2397;BME280;1209;48.410;9.054;2022-11-20T06:39:50;95732.66;;;5.32;100.00
2397;BME280;1209;48.410;9.054;2022-11-20T06:42:16;95737.66;;;5.34;100.00
2397;BME280;1209;48.410;9.054;2022-11-20T06:44:41;95739.63;;;5.40;100.00
2397;BME280;1209;48.410;9.054;2022-11-20T06:47:06;95740.94;;;5.44;100.00
2397;BME280;1209;48.410;9.054;2022-11-20T06:49:32;95742.56;;;5.45;100.00
2397;BME280;1209;48.410;9.054;2022-11-20T06:51:59;95738.19;;;5.46;100.00
2397;BME280;1209;48.410;9.054;2022-11-20T06:54:24;95750.31;;;5.45;100.00
2397;BME280;1209;48.410;9.054;2022-11-20T06:56:49;95745.03;;;5.55;100.00
2397;BME280;1209;48.410;9.054;2022-11-20T06:59:15;95748.25;;;5.57;100.00
2397;BME280;1209;48.410;9.054;2022-11-20T07:01:40;95749.09;;;5.65;100.00
2397;BME280;1209;48.410;9.054;2022-11-20T07:04:06;95744.72;;;5.66;100.00
2397;BME280;1209;48.410;9.054;2022-11-20T07:06:31;95737.16;;;5.73;100.00
2397;BME280;1209;48.410;9.054;2022-11-20T07:08:57;95743.66;;;5.77;100.00
2397;BME280;1209;48.410;9.054;2022-11-20T07:11:23;95744.81;;;5.82;100.00
2397;BME280;1209;48.410;9.054;2022-11-20T07:13:48;95739.47;;;5.84;100.00
2397;BME280;1209;48.410;9.054;2022-11-20T07:16:14;95744.81;;;5.82;100.00
2397;BME280;1209;48.410;9.054;2022-11-20T07:18:39;95751.59;;;5.83;100.00
2397;BME280;1209;48.410;9.054;2022-11-20T07:21:07;95746.75;;;5.88;100.00
2397;BME280;1209;48.410;9.054;2022-11-20T07:23:33;95745.81;;;5.89;100.00
2397;BME280;1209;48.410;9.054;2022-11-20T07:26:03;95752.47;;;5.92;100.00
2397;BME280;1209;48.410;9.054;2022-11-20T07:28:29;95749.50;;;5.87;100.00
2397;BME280;1209;48.410;9.054;2022-11-20T07:30:54;95750.84;;;5.91;100.00
2397;BME280;1209;48.410;9.054;2022-11-20T07:33:20;95756.19;;;5.97;100.00
2397;BME280;1209;48.410;9.054;2022-11-20T07:35:46;95757.16;;;5.96;100.00
2397;BME280;1209;48.410;9.054;2022-11-20T07:38:11;95754.75;;;6.03;100.00
2397;BME280;1209;48.410;9.054;2022-11-20T07:40:36;95757.50;;;6.10;100.00
2397;BME280;1209;48.410;9.054;2022-11-20T07:43:02;95758.66;;;6.07;100.00
2397;BME280;1209;48.410;9.054;2022-11-20T07:45:27;95770.47;;;6.10;100.00
2397;BME280;1209;48.410;9.054;2022-11-20T07:47:52;95766.59;;;6.06;100.00
2397;BME280;1209;48.410;9.054;2022-11-20T07:50:19;95755.78;;;6.18;100.00
2397;BME280;1209;48.410;9.054;2022-11-20T07:52:44;95756.91;;;6.16;100.00
2397;BME280;1209;48.410;9.054;2022-11-20T07:55:10;95758.38;;;6.26;100.00
2397;BME280;1209;48.410;9.054;2022-11-20T07:57:36;95763.22;;;6.29;100.00
2397;BME280;1209;48.410;9.054;2022-11-20T08:00:03;95768.25;;;6.39;100.00
2397;BME280;1209;48.410;9.054;2022-11-20T08:02:29;95767.94;;;6.42;100.00
2397;BME280;1209;48.410;9.054;2022-11-20T08:04:54;95774.09;;;6.41;100.00
2397;BME280;1209;48.410;9.054;2022-11-20T08:07:20;95769.41;;;6.53;100.00
2397;BME280;1209;48.410;9.054;2022-11-20T08:09:45;95774.44;;;6.46;100.00
2397;BME280;1209;48.410;9.054;2022-11-20T08:12:18;95774.25;;;6.48;100.00
2397;BME280;1209;48.410;9.054;2022-11-20T08:15:22;95775.88;;;6.49;100.00
2397;BME280;1209;48.410;9.054;2022-11-20T08:17:47;95786.25;;;6.57;100.00
2397;BME280;1209;48.410;9.054;2022-11-20T08:20:13;95783.81;;;6.47;100.00
2397;BME280;1209;48.410;9.054;2022-11-20T08:22:38;95783.19;;;6.53;100.00
2397;BME280;1209;48.410;9.054;2022-11-20T08:25:04;95785.63;;;6.63;100.00
2397;BME280;1209;48.410;9.054;2022-11-20T08:27:31;95785.28;;;6.58;100.00
2397;BME280;1209;48.410;9.054;2022-11-20T08:29:56;95793.88;;;6.58;100.00
2397;BME280;1209;48.410;9.054;2022-11-20T08:32:22;95795.84;;;6.73;100.00
2397;BME280;1209;48.410;9.054;2022-11-20T08:34:47;95798.63;;;6.71;100.00
2397;BME280;1209;48.410;9.054;2022-11-20T08:37:12;95794.72;;;6.75;100.00
2397;BME280;1209;48.410;9.054;2022-11-20T08:39:37;95793.41;;;6.79;100.00
2397;BME280;1209;48.410;9.054;2022-11-20T08:42:07;95794.53;;;6.85;100.00
2397;BME280;1209;48.410;9.054;2022-11-20T08:44:33;95797.16;;;6.85;100.00
2397;BME280;1209;48.410;9.054;2022-11-20T08:47:00;95795.69;;;6.90;100.00
2397;BME280;1209;48.410;9.054;2022-11-20T08:49:25;95797.94;;;6.85;100.00
2397;BME280;1209;48.410;9.054;2022-11-20T08:51:50;95801.50;;;6.92;100.00
2397;BME280;1209;48.410;9.054;2022-11-20T08:54:18;95802.16;;;6.94;100.00
2397;BME280;1209;48.410;9.054;2022-11-20T08:56:46;95801.84;;;6.89;100.00
2397;BME280;1209;48.410;9.054;2022-11-20T08:59:12;95804.28;;;6.91;100.00
2397;BME280;1209;48.410;9.054;2022-11-20T09:01:37;95802.50;;;6.91;100.00
2397;BME280;1209;48.410;9.054;2022-11-20T09:04:02;95800.53;;;6.93;100.00
2397;BME280;1209;48.410;9.054;2022-11-20T09:06:29;95807.34;;;7.03;100.00
2397;BME280;1209;48.410;9.054;2022-11-20T09:08:55;95805.56;;;7.03;100.00
2397;BME280;1209;48.410;9.054;2022-11-20T09:11:22;95809.94;;;6.94;100.00
2397;BME280;1209;48.410;9.054;2022-11-20T09:13:47;95809.28;;;7.01;100.00
2397;BME280;1209;48.410;9.054;2022-11-20T09:16:12;95811.88;;;7.01;100.00
2397;BME280;1209;48.410;9.054;2022-11-20T09:18:38;95810.44;;;6.98;100.00
2397;BME280;1209;48.410;9.054;2022-11-20T09:21:11;95809.97;;;6.86;100.00
2397;BME280;1209;48.410;9.054;2022-11-20T09:23:38;95807.34;;;6.86;100.00
2397;BME280;1209;48.410;9.054;2022-11-20T09:26:04;95816.44;;;6.90;100.00
2397;BME280;1209;48.410;9.054;2022-11-20T09:28:30;95807.03;;;6.89;100.00
2397;BME280;1209;48.410;9.054;2022-11-20T09:30:56;95816.78;;;6.71;100.00
2397;BME280;1209;48.410;9.054;2022-11-20T09:33:21;95819.84;;;6.75;100.00
2397;BME280;1209;48.410;9.054;2022-11-20T09:35:47;95810.78;;;6.71;100.00
2397;BME280;1209;48.410;9.054;2022-11-20T09:38:12;95821.00;;;6.80;100.00
2397;BME280;1209;48.410;9.054;2022-11-20T09:40:43;95820.00;;;6.81;100.00
2397;BME280;1209;48.410;9.054;2022-11-20T09:43:16;95818.56;;;6.79;100.00
2397;BME280;1209;48.410;9.054;2022-11-20T09:46:07;95829.75;;;6.79;100.00
2397;BME280;1209;48.410;9.054;2022-11-20T09:51:59;95831.38;;;6.72;100.00
2397;BME280;1209;48.410;9.054;2022-11-20T09:54:37;95830.72;;;6.78;100.00
2397;BME280;1209;48.410;9.054;2022-11-20T09:57:12;95839.63;;;6.76;100.00
2397;BME280;1209;48.410;9.054;2022-11-20T09:59:44;95840.28;;;6.78;100.00
2397;BME280;1209;48.410;9.054;2022-11-20T10:02:25;95836.22;;;6.91;100.00
2397;BME280;1209;48.410;9.054;2022-11-20T10:07:30;95834.13;;;6.87;100.00
2397;BME280;1209;48.410;9.054;2022-11-20T10:10:00;95831.38;;;6.88;100.00
2397;BME280;1209;48.410;9.054;2022-11-20T10:13:02;95841.25;;;6.93;100.00
2397;BME280;1209;48.410;9.054;2022-11-20T10:26:40;95844.97;;;7.07;100.00
2397;BME280;1209;48.410;9.054;2022-11-20T10:31:38;95836.56;;;7.13;100.00
2397;BME280;1209;48.410;9.054;2022-11-20T10:34:12;95841.91;;;7.11;100.00
2397;BME280;1209;48.410;9.054;2022-11-20T10:36:55;95846.13;;;7.04;100.00
2397;BME280;1209;48.410;9.054;2022-11-20T10:41:54;95836.88;;;7.02;100.00
2397;BME280;1209;48.410;9.054;2022-11-20T10:44:21;95837.03;;;7.00;100.00
2397;BME280;1209;48.410;9.054;2022-11-20T10:47:13;95837.19;;;7.07;100.00
2397;BME280;1209;48.410;9.054;2022-11-20T10:49:39;95836.91;;;7.10;100.00
2397;BME280;1209;48.410;9.054;2022-11-20T10:52:19;95835.75;;;7.12;100.00
2397;BME280;1209;48.410;9.054;2022-11-20T10:55:13;95831.34;;;6.97;100.00
2397;BME280;1209;48.410;9.054;2022-11-20T10:57:50;95830.03;;;7.09;100.00
2397;BME280;1209;48.410;9.054;2022-11-20T11:00:17;95830.53;;;7.04;100.00
2397;BME280;1209;48.410;9.054;2022-11-20T11:02:53;95831.03;;;7.08;100.00
2397;BME280;1209;48.410;9.054;2022-11-20T11:05:43;95837.69;;;7.10;100.00
2397;BME280;1209;48.410;9.054;2022-11-20T11:08:15;95836.72;;;7.03;100.00
2397;BME280;1209;48.410;9.054;2022-11-20T11:13:49;95839.78;;;7.07;100.00
2397;BME280;1209;48.410;9.054;2022-11-20T11:16:26;95830.38;;;7.06;100.00
2397;BME280;1209;48.410;9.054;2022-11-20T11:18:51;95827.16;;;6.95;100.00
2397;BME280;1209;48.410;9.054;2022-11-20T11:21:25;95814.31;;;6.94;100.00
2397;BME280;1209;48.410;9.054;2022-11-20T11:24:02;95815.31;;;6.93;100.00
2397;BME280;1209;48.410;9.054;2022-11-20T11:26:28;95816.28;;;6.92;100.00
2397;BME280;1209;48.410;9.054;2022-11-20T11:29:02;95811.88;;;7.01;100.00
2397;BME280;1209;48.410;9.054;2022-11-20T11:31:30;95810.25;;;7.00;100.00
2397;BME280;1209;48.410;9.054;2022-11-20T11:34:14;95799.38;;;7.04;100.00
2397;BME280;1209;48.410;9.054;2022-11-20T11:36:40;95805.91;;;6.92;100.00
2397;BME280;1209;48.410;9.054;2022-11-20T11:39:11;95802.78;;;7.05;100.00
2397;BME280;1209;48.410;9.054;2022-11-20T11:41:39;95800.38;;;7.03;100.00
2397;BME280;1209;48.410;9.054;2022-11-20T11:44:19;95798.09;;;6.92;100.00
2397;BME280;1209;48.410;9.054;2022-11-20T11:47:05;95791.63;;;6.96;100.00
2397;BME280;1209;48.410;9.054;2022-11-20T11:49:34;95790.66;;;6.89;100.00
2397;BME280;1209;48.410;9.054;2022-11-20T11:52:05;95794.03;;;7.06;100.00
2397;BME280;1209;48.410;9.054;2022-11-20T11:54:47;95784.00;;;7.11;100.00
2397;BME280;1209;48.410;9.054;2022-11-20T11:58:27;95788.53;;;7.17;100.00
2397;BME280;1209;48.410;9.054;2022-11-20T12:00:26;95771.28;;;7.32;100.00
2397;BME280;1209;48.410;9.054;2022-11-20T12:05:47;95772.13;;;7.72;100.00
2397;BME280;1209;48.410;9.054;2022-11-20T12:08:25;95771.78;;;7.75;100.00
2397;BME280;1209;48.410;9.054;2022-11-20T12:11:06;95761.56;;;7.73;100.00
2397;BME280;1209;48.410;9.054;2022-11-20T12:16:12;95756.81;;;8.16;100.00
2397;BME280;1209;48.410;9.054;2022-11-20T12:18:38;95752.63;;;8.38;100.00
2397;BME280;1209;48.410;9.054;2022-11-20T12:24:06;95747.53;;;8.44;100.00
2397;BME280;1209;48.410;9.054;2022-11-20T12:34:56;95747.59;;;8.05;100.00
2397;BME280;1209;48.410;9.054;2022-11-20T12:37:49;95738.66;;;8.00;100.00
2397;BME280;1209;48.410;9.054;2022-11-20T12:40:27;95726.72;;;7.90;100.00
2397;BME280;1209;48.410;9.054;2022-11-20T12:43:19;95723.22;;;8.06;100.00
2397;BME280;1209;48.410;9.054;2022-11-20T12:49:12;95729.28;;;8.21;100.00
2397;BME280;1209;48.410;9.054;2022-11-20T12:52:02;95728.88;;;8.33;100.00
2397;BME280;1209;48.410;9.054;2022-11-20T12:54:43;95736.75;;;8.25;100.00
2397;BME280;1209;48.410;9.054;2022-11-20T13:00:08;95736.84;;;8.31;100.00
2397;BME280;1209;48.410;9.054;2022-11-20T13:07:54;95730.03;;;8.07;100.00
2397;BME280;1209;48.410;9.054;2022-11-20T13:10:35;95741.75;;;8.03;100.00
2397;BME280;1209;48.410;9.054;2022-11-20T13:16:16;95745.03;;;7.97;100.00
2397;BME280;1209;48.410;9.054;2022-11-20T13:18:45;95739.69;;;7.90;100.00
2397;BME280;1209;48.410;9.054;2022-11-20T13:21:36;95730.38;;;7.73;100.00
2397;BME280;1209;48.410;9.054;2022-11-20T13:26:45;95744.22;;;7.66;100.00
2397;BME280;1209;48.410;9.054;2022-11-20T13:29:16;95734.09;;;7.79;100.00
2397;BME280;1209;48.410;9.054;2022-11-20T13:31:44;95740.19;;;7.63;100.00
2397;BME280;1209;48.410;9.054;2022-11-20T13:34:13;95736.03;;;7.77;100.00
2397;BME280;1209;48.410;9.054;2022-11-20T13:36:52;95732.06;;;7.89;100.00
2397;BME280;1209;48.410;9.054;2022-11-20T13:39:30;95733.56;;;7.83;100.00
2397;BME280;1209;48.410;9.054;2022-11-20T13:41:58;95727.25;;;7.78;100.00
2397;BME280;1209;48.410;9.054;2022-11-20T13:44:34;95716.63;;;7.56;100.00
2397;BME280;1209;48.410;9.054;2022-11-20T13:47:03;95715.63;;;7.66;100.00
2397;BME280;1209;48.410;9.054;2022-11-20T13:49:32;95713.69;;;7.68;100.00
2397;BME280;1209;48.410;9.054;2022-11-20T13:52:37;95707.75;;;7.82;100.00
2397;BME280;1209;48.410;9.054;2022-11-20T14:00:48;95692.50;;;8.02;100.00
2397;BME280;1209;48.410;9.054;2022-11-20T14:03:19;95675.56;;;7.83;100.00
2397;BME280;1209;48.410;9.054;2022-11-20T14:05:55;95672.56;;;7.94;100.00
2397;BME280;1209;48.410;9.054;2022-11-20T14:08:31;95668.19;;;7.95;100.00
2397;BME280;1209;48.410;9.054;2022-11-20T14:11:21;95673.03;;;7.98;100.00
2397;BME280;1209;48.410;9.054;2022-11-20T14:14:04;95675.25;;;8.09;100.00
2397;BME280;1209;48.410;9.054;2022-11-20T14:16:34;95667.91;;;8.12;100.00
2397;BME280;1209;48.410;9.054;2022-11-20T14:22:06;95666.50;;;8.02;100.00
2397;BME280;1209;48.410;9.054;2022-11-20T14:24:32;95670.59;;;8.04;100.00
2397;BME280;1209;48.410;9.054;2022-11-20T14:26:58;95665.88;;;8.00;100.00
2397;BME280;1209;48.410;9.054;2022-11-20T14:29:27;95663.03;;;7.86;100.00
2397;BME280;1209;48.410;9.054;2022-11-20T14:31:54;95672.94;;;7.91;100.00
2397;BME280;1209;48.410;9.054;2022-11-20T14:34:32;95659.34;;;7.81;100.00
2397;BME280;1209;48.410;9.054;2022-11-20T14:37:03;95662.97;;;7.72;100.00
2397;BME280;1209;48.410;9.054;2022-11-20T14:39:32;95664.09;;;7.77;100.00
2397;BME280;1209;48.410;9.054;2022-11-20T14:41:58;95662.75;;;7.81;100.00
2397;BME280;1209;48.410;9.054;2022-11-20T14:44:27;95660.22;;;7.73;100.00
2397;BME280;1209;48.410;9.054;2022-11-20T14:46:54;95649.28;;;7.78;100.00
2397;BME280;1209;48.410;9.054;2022-11-20T14:49:20;95651.91;;;7.78;100.00
2397;BME280;1209;48.410;9.054;2022-11-20T14:51:46;95646.59;;;7.71;100.00